sensor_id;sensor_type;location;lat;lon;timestamp;pressure;altitude;pressure_sealevel;temperature;humidity
29733;BME280;16643;43.158;25.302;2023-03-26T00:01:32;97349.16;;;12.85;92.18
29733;BME280;16643;43.158;25.302;2023-03-26T00:04:01;97286.84;;;12.46;91.88
29733;BME280;16643;43.158;25.302;2023-03-26T00:06:30;97351.00;;;12.83;92.93
29733;BME280;16643;43.158;25.302;2023-03-26T00:08:58;97360.97;;;12.75;93.31
29733;BME280;16643;43.158;25.302;2023-03-26T00:11:25;97359.22;;;12.75;94.06
29733;BME280;16643;43.158;25.302;2023-03-26T00:13:51;97368.47;;;12.81;93.39
29733;BME280;16643;43.158;25.302;2023-03-26T00:16:24;97355.22;;;12.68;93.98
29733;BME280;16643;43.158;25.302;2023-03-26T00:18:50;97343.34;;;12.62;95.25
29733;BME280;16643;43.158;25.302;2023-03-26T00:21:18;97377.91;;;12.66;95.31
29733;BME280;16643;43.158;25.302;2023-03-26T00:23:53;97377.84;;;12.67;97.09
29733;BME280;16643;43.158;25.302;2023-03-26T00:26:19;97387.28;;;12.70;98.64
29733;BME280;16643;43.158;25.302;2023-03-26T00:28:46;97385.97;;;12.61;100.00
29733;BME280;16643;43.158;25.302;2023-03-26T00:31:15;97350.41;;;12.26;100.00
29733;BME280;16643;43.158;25.302;2023-03-26T00:33:41;97383.59;;;12.40;100.00
29733;BME280;16643;43.158;25.302;2023-03-26T00:36:10;97385.03;;;12.28;100.00
29733;BME280;16643;43.158;25.302;2023-03-26T00:38:39;97362.84;;;12.19;100.00
29733;BME280;16643;43.158;25.302;2023-03-26T00:41:07;97375.88;;;12.19;100.00
29733;BME280;16643;43.158;25.302;2023-03-26T00:43:43;97384.22;;;12.09;100.00
29733;BME280;16643;43.158;25.302;2023-03-26T00:46:10;97331.72;;;11.82;100.00
29733;BME280;16643;43.158;25.302;2023-03-26T00:48:36;97360.63;;;11.94;100.00
29733;BME280;16643;43.158;25.302;2023-03-26T00:51:04;97375.03;;;12.02;100.00
29733;BME280;16643;43.158;25.302;2023-03-26T00:53:31;97399.53;;;11.97;100.00
29733;BME280;16643;43.158;25.302;2023-03-26T00:55:57;97392.63;;;11.96;100.00
29733;BME280;16643;43.158;25.302;2023-03-26T00:58:26;97399.09;;;11.88;100.00
29733;BME280;16643;43.158;25.302;2023-03-26T01:00:55;97386.81;;;11.91;100.00
29733;BME280;16643;43.158;25.302;2023-03-26T01:03:23;97389.47;;;11.90;100.00
29733;BME280;16643;43.158;25.302;2023-03-26T01:05:58;97379.25;;;11.85;100.00
29733;BME280;16643;43.158;25.302;2023-03-26T01:08:35;97351.19;;;11.73;100.00
29733;BME280;16643;43.158;25.302;2023-03-26T01:11:06;97364.28;;;11.72;100.00
29733;BME280;16643;43.158;25.302;2023-03-26T01:13:40;97385.41;;;11.84;100.00
29733;BME280;16643;43.158;25.302;2023-03-26T01:16:09;97379.84;;;11.73;100.00
29733;BME280;16643;43.158;25.302;2023-03-26T01:18:44;97396.22;;;11.75;100.00
29733;BME280;16643;43.158;25.302;2023-03-26T01:21:10;97359.22;;;11.50;100.00
29733;BME280;16643;43.158;25.302;2023-03-26T01:23:45;97385.44;;;11.64;100.00
29733;BME280;16643;43.158;25.302;2023-03-26T01:26:32;97375.31;;;11.58;100.00
29733;BME280;16643;43.158;25.302;2023-03-26T01:29:05;97386.28;;;11.64;100.00
29733;BME280;16643;43.158;25.302;2023-03-26T01:31:47;97381.09;;;11.46;100.00
29733;BME280;16643;43.158;25.302;2023-03-26T01:34:31;97403.38;;;11.51;100.00
29733;BME280;16643;43.158;25.302;2023-03-26T01:39:56;97394.47;;;11.57;100.00
29733;BME280;16643;43.158;25.302;2023-03-26T01:42:36;97376.38;;;11.54;100.00
29733;BME280;16643;43.158;25.302;2023-03-26T01:45:14;97386.00;;;11.52;100.00
29733;BME280;16643;43.158;25.302;2023-03-26T01:47:41;97392.69;;;11.57;100.00
29733;BME280;16643;43.158;25.302;2023-03-26T01:50:09;97374.19;;;11.45;100.00
29733;BME280;16643;43.158;25.302;2023-03-26T01:52:34;97381.81;;;11.49;100.00
29733;BME280;16643;43.158;25.302;2023-03-26T01:55:00;97360.56;;;11.40;100.00
29733;BME280;16643;43.158;25.302;2023-03-26T01:57:45;97386.78;;;11.54;100.00
29733;BME280;16643;43.158;25.302;2023-03-26T02:00:26;97389.53;;;11.51;100.00
29733;BME280;16643;43.158;25.302;2023-03-26T02:05:51;97371.09;;;11.37;100.00
29733;BME280;16643;43.158;25.302;2023-03-26T02:08:28;97385.59;;;11.42;100.00
29733;BME280;16643;43.158;25.302;2023-03-26T02:11:03;97396.91;;;11.41;100.00
29733;BME280;16643;43.158;25.302;2023-03-26T02:13:30;97411.72;;;11.20;100.00
29733;BME280;16643;43.158;25.302;2023-03-26T02:16:02;97391.13;;;11.16;100.00
29733;BME280;16643;43.158;25.302;2023-03-26T02:18:28;97381.75;;;11.12;100.00
29733;BME280;16643;43.158;25.302;2023-03-26T02:21:14;97402.94;;;11.23;100.00
29733;BME280;16643;43.158;25.302;2023-03-26T02:23:45;97415.88;;;11.24;100.00
29733;BME280;16643;43.158;25.302;2023-03-26T02:26:13;97410.25;;;11.15;100.00
29733;BME280;16643;43.158;25.302;2023-03-26T02:28:39;97439.94;;;11.09;100.00
29733;BME280;16643;43.158;25.302;2023-03-26T02:31:05;97383.19;;;10.99;100.00
29733;BME280;16643;43.158;25.302;2023-03-26T02:33:31;97419.91;;;11.11;100.00
29733;BME280;16643;43.158;25.302;2023-03-26T02:35:57;97429.41;;;11.12;100.00
29733;BME280;16643;43.158;25.302;2023-03-26T02:38:27;97423.72;;;11.04;100.00
29733;BME280;16643;43.158;25.302;2023-03-26T02:40:54;97447.63;;;11.12;100.00
29733;BME280;16643;43.158;25.302;2023-03-26T02:43:20;97440.66;;;11.13;100.00
29733;BME280;16643;43.158;25.302;2023-03-26T02:45:46;97406.94;;;10.91;100.00
29733;BME280;16643;43.158;25.302;2023-03-26T02:48:12;97428.31;;;10.98;100.00
29733;BME280;16643;43.158;25.302;2023-03-26T02:50:39;97411.63;;;10.83;100.00
29733;BME280;16643;43.158;25.302;2023-03-26T02:53:05;97444.25;;;11.10;100.00
29733;BME280;16643;43.158;25.302;2023-03-26T02:55:31;97424.31;;;10.90;100.00
29733;BME280;16643;43.158;25.302;2023-03-26T02:57:57;74269.06;;;-142.82;100.00
29733;BME280;16643;43.158;25.302;2023-03-26T03:00:22;97434.13;;;11.04;100.00
29733;BME280;16643;43.158;25.302;2023-03-26T03:02:50;97435.47;;;11.13;100.00
29733;BME280;16643;43.158;25.302;2023-03-26T03:05:18;97443.06;;;11.17;100.00
29733;BME280;16643;43.158;25.302;2023-03-26T03:07:44;97452.41;;;11.21;100.00
29733;BME280;16643;43.158;25.302;2023-03-26T03:10:11;97464.53;;;11.22;100.00
29733;BME280;16643;43.158;25.302;2023-03-26T03:12:39;97446.06;;;11.08;100.00
29733;BME280;16643;43.158;25.302;2023-03-26T03:15:06;97443.41;;;11.10;100.00
29733;BME280;16643;43.158;25.302;2023-03-26T03:17:32;97447.63;;;11.12;100.00
29733;BME280;16643;43.158;25.302;2023-03-26T03:19:57;97451.19;;;11.10;100.00
29733;BME280;16643;43.158;25.302;2023-03-26T03:22:23;97426.84;;;10.92;100.00
29733;BME280;16643;43.158;25.302;2023-03-26T03:24:49;97440.91;;;11.07;100.00
29733;BME280;16643;43.158;25.302;2023-03-26T03:27:17;97437.81;;;10.99;100.00
29733;BME280;16643;43.158;25.302;2023-03-26T03:29:45;97470.06;;;11.15;100.00
29733;BME280;16643;43.158;25.302;2023-03-26T03:32:11;97470.06;;;-142.82;100.00
29733;BME280;16643;43.158;25.302;2023-03-26T03:34:37;97471.81;;;11.14;100.00
29733;BME280;16643;43.158;25.302;2023-03-26T03:37:04;97414.16;;;10.84;100.00
29733;BME280;16643;43.158;25.302;2023-03-26T03:39:29;97422.28;;;10.77;100.00
29733;BME280;16643;43.158;25.302;2023-03-26T03:41:55;97447.34;;;10.98;100.00
29733;BME280;16643;43.158;25.302;2023-03-26T03:44:20;97425.72;;;10.77;100.00
29733;BME280;16643;43.158;25.302;2023-03-26T03:46:46;97426.22;;;10.85;100.00
29733;BME280;16643;43.158;25.302;2023-03-26T03:49:13;97403.63;;;10.67;100.00
29733;BME280;16643;43.158;25.302;2023-03-26T03:51:39;97432.78;;;10.74;100.00
29733;BME280;16643;43.158;25.302;2023-03-26T03:54:06;97431.75;;;10.78;100.00
29733;BME280;16643;43.158;25.302;2023-03-26T03:56:32;97458.59;;;10.78;100.00
29733;BME280;16643;43.158;25.302;2023-03-26T03:58:58;97432.03;;;10.72;100.00
29733;BME280;16643;43.158;25.302;2023-03-26T04:01:24;97419.63;;;10.58;100.00
29733;BME280;16643;43.158;25.302;2023-03-26T04:03:49;97428.31;;;10.57;99.73
29733;BME280;16643;43.158;25.302;2023-03-26T04:06:15;97442.16;;;10.58;99.54
29733;BME280;16643;43.158;25.302;2023-03-26T04:08:44;97481.47;;;10.70;99.43
29733;BME280;16643;43.158;25.302;2023-03-26T04:11:12;97453.06;;;10.66;99.84
29733;BME280;16643;43.158;25.302;2023-03-26T04:13:37;97453.25;;;10.61;100.00
29733;BME280;16643;43.158;25.302;2023-03-26T04:16:03;97483.94;;;10.73;100.00
29733;BME280;16643;43.158;25.302;2023-03-26T04:18:29;97457.63;;;10.61;99.99
29733;BME280;16643;43.158;25.302;2023-03-26T04:20:57;97471.19;;;10.67;100.00
29733;BME280;16643;43.158;25.302;2023-03-26T04:23:26;97493.84;;;10.64;100.00
29733;BME280;16643;43.158;25.302;2023-03-26T04:25:54;97456.47;;;10.46;100.00
29733;BME280;16643;43.158;25.302;2023-03-26T04:28:59;97475.09;;;10.57;100.00
29733;BME280;16643;43.158;25.302;2023-03-26T04:31:27;97487.47;;;10.50;100.00
29733;BME280;16643;43.158;25.302;2023-03-26T04:34:19;97483.84;;;10.54;99.88
29733;BME280;16643;43.158;25.302;2023-03-26T04:36:47;97490.19;;;10.47;99.62
29733;BME280;16643;43.158;25.302;2023-03-26T04:39:13;97488.94;;;10.36;100.00
29733;BME280;16643;43.158;25.302;2023-03-26T04:41:39;97497.78;;;10.52;99.73
29733;BME280;16643;43.158;25.302;2023-03-26T04:44:04;97481.78;;;10.41;98.77
29733;BME280;16643;43.158;25.302;2023-03-26T04:46:31;74376.06;;;-142.82;98.77
29733;BME280;16643;43.158;25.302;2023-03-26T04:48:58;97482.22;;;10.52;98.12
29733;BME280;16643;43.158;25.302;2023-03-26T04:51:26;97502.88;;;10.55;97.87
29733;BME280;16643;43.158;25.302;2023-03-26T04:53:59;97477.81;;;10.54;96.72
29733;BME280;16643;43.158;25.302;2023-03-26T04:56:50;97512.47;;;10.75;95.41
29733;BME280;16643;43.158;25.302;2023-03-26T04:59:21;97513.97;;;10.80;95.37
29733;BME280;16643;43.158;25.302;2023-03-26T05:01:53;97508.31;;;10.71;96.12
29733;BME280;16643;43.158;25.302;2023-03-26T05:04:19;97515.03;;;10.54;94.31
29733;BME280;16643;43.158;25.302;2023-03-26T05:06:45;97537.44;;;10.79;95.07
29733;BME280;16643;43.158;25.302;2023-03-26T05:09:11;97521.44;;;10.68;94.66
29733;BME280;16643;43.158;25.302;2023-03-26T05:11:36;97519.06;;;10.62;94.41
29733;BME280;16643;43.158;25.302;2023-03-26T05:14:02;97548.84;;;10.75;94.24
29733;BME280;16643;43.158;25.302;2023-03-26T05:16:28;97549.22;;;10.66;93.64
29733;BME280;16643;43.158;25.302;2023-03-26T05:18:56;97572.44;;;10.70;94.21
29733;BME280;16643;43.158;25.302;2023-03-26T05:21:22;74235.47;;;-142.82;94.21
29733;BME280;16643;43.158;25.302;2023-03-26T05:23:47;97532.06;;;10.62;92.77
29733;BME280;16643;43.158;25.302;2023-03-26T05:26:13;97540.91;;;10.58;93.12
29733;BME280;16643;43.158;25.302;2023-03-26T05:28:39;97566.03;;;10.79;93.19
29733;BME280;16643;43.158;25.302;2023-03-26T05:31:05;97536.41;;;10.61;92.41
29733;BME280;16643;43.158;25.302;2023-03-26T05:33:32;97573.72;;;10.82;92.01
29733;BME280;16643;43.158;25.302;2023-03-26T05:36:00;97537.03;;;10.68;91.66
29733;BME280;16643;43.158;25.302;2023-03-26T05:38:27;97525.34;;;10.56;91.40
29733;BME280;16643;43.158;25.302;2023-03-26T05:41:01;97562.47;;;10.81;91.46
29733;BME280;16643;43.158;25.302;2023-03-26T05:43:28;97584.34;;;10.76;91.36
29733;BME280;16643;43.158;25.302;2023-03-26T05:45:54;97560.94;;;10.76;91.49
29733;BME280;16643;43.158;25.302;2023-03-26T05:48:20;97578.91;;;10.82;90.97
29733;BME280;16643;43.158;25.302;2023-03-26T05:50:53;74397.88;;;-142.82;90.97
29733;BME280;16643;43.158;25.302;2023-03-26T05:53:21;97568.66;;;10.99;89.67
29733;BME280;16643;43.158;25.302;2023-03-26T05:55:47;97556.03;;;10.90;87.58
29733;BME280;16643;43.158;25.302;2023-03-26T05:58:30;97554.25;;;10.92;87.79
29733;BME280;16643;43.158;25.302;2023-03-26T06:01:00;97544.91;;;10.86;87.26
29733;BME280;16643;43.158;25.302;2023-03-26T06:03:31;97548.56;;;10.82;88.00
29733;BME280;16643;43.158;25.302;2023-03-26T06:05:57;97563.00;;;10.89;88.52
29733;BME280;16643;43.158;25.302;2023-03-26T06:08:23;97538.41;;;10.76;87.98
29733;BME280;16643;43.158;25.302;2023-03-26T06:11:01;97549.56;;;11.00;86.78
29733;BME280;16643;43.158;25.302;2023-03-26T06:13:28;97550.34;;;11.02;86.36
29733;BME280;16643;43.158;25.302;2023-03-26T06:15:55;97562.56;;;11.00;85.60
29733;BME280;16643;43.158;25.302;2023-03-26T06:18:23;97522.41;;;10.85;85.15
29733;BME280;16643;43.158;25.302;2023-03-26T06:20:49;97559.56;;;11.09;84.57
29733;BME280;16643;43.158;25.302;2023-03-26T06:23:16;97505.41;;;10.99;84.65
29733;BME280;16643;43.158;25.302;2023-03-26T06:25:45;97555.13;;;11.33;82.93
29733;BME280;16643;43.158;25.302;2023-03-26T06:28:11;97561.38;;;11.49;82.31
29733;BME280;16643;43.158;25.302;2023-03-26T06:30:37;97584.00;;;11.68;82.50
29733;BME280;16643;43.158;25.302;2023-03-26T06:33:04;97561.63;;;11.84;81.45
29733;BME280;16643;43.158;25.302;2023-03-26T06:35:30;97552.44;;;11.95;79.65
29733;BME280;16643;43.158;25.302;2023-03-26T06:37:57;74233.38;;;-142.82;79.65
29733;BME280;16643;43.158;25.302;2023-03-26T06:40:25;113773.03;;;-142.82;79.70
29733;BME280;16643;43.158;25.302;2023-03-26T06:42:51;97520.03;;;12.01;78.74
29733;BME280;16643;43.158;25.302;2023-03-26T06:45:17;97542.06;;;12.31;76.31
29733;BME280;16643;43.158;25.302;2023-03-26T06:47:44;97544.03;;;12.45;76.29
29733;BME280;16643;43.158;25.302;2023-03-26T06:50:09;97568.84;;;12.90;75.53
29733;BME280;16643;43.158;25.302;2023-03-26T06:52:36;97574.19;;;13.05;74.37
29733;BME280;16643;43.158;25.302;2023-03-26T06:55:02;97562.94;;;12.86;72.43
29733;BME280;16643;43.158;25.302;2023-03-26T06:57:33;97583.75;;;12.69;74.07
29733;BME280;16643;43.158;25.302;2023-03-26T06:59:59;97588.94;;;12.88;74.60
29733;BME280;16643;43.158;25.302;2023-03-26T07:02:25;97600.72;;;12.96;73.46
29733;BME280;16643;43.158;25.302;2023-03-26T07:04:51;97572.22;;;12.92;73.74
29733;BME280;16643;43.158;25.302;2023-03-26T07:07:17;73728.16;;;-142.82;73.74
29733;BME280;16643;43.158;25.302;2023-03-26T07:09:46;97546.72;;;12.44;73.83
29733;BME280;16643;43.158;25.302;2023-03-26T07:12:13;97599.34;;;12.70;73.04
29733;BME280;16643;43.158;25.302;2023-03-26T07:14:38;97599.25;;;12.53;73.34
29733;BME280;16643;43.158;25.302;2023-03-26T07:17:05;97606.94;;;12.56;74.79
29733;BME280;16643;43.158;25.302;2023-03-26T07:19:31;74195.84;;;-142.82;74.79
29733;BME280;16643;43.158;25.302;2023-03-26T07:21:57;97591.19;;;12.41;73.02
29733;BME280;16643;43.158;25.302;2023-03-26T07:24:23;97581.75;;;12.38;71.45
29733;BME280;16643;43.158;25.302;2023-03-26T07:27:30;97603.13;;;12.82;72.45
29733;BME280;16643;43.158;25.302;2023-03-26T07:29:52;97600.25;;;13.05;69.64
29733;BME280;16643;43.158;25.302;2023-03-26T07:32:33;97577.97;;;13.34;69.87
29733;BME280;16643;43.158;25.302;2023-03-26T07:35:40;97579.97;;;13.64;68.88
29733;BME280;16643;43.158;25.302;2023-03-26T07:40:54;97595.06;;;14.25;65.29
29733;BME280;16643;43.158;25.302;2023-03-26T07:46:28;97601.81;;;14.29;67.07
29733;BME280;16643;43.158;25.302;2023-03-26T07:48:56;97592.72;;;14.20;65.20
29733;BME280;16643;43.158;25.302;2023-03-26T07:51:25;97614.25;;;14.08;64.77
29733;BME280;16643;43.158;25.302;2023-03-26T07:53:51;97581.22;;;14.07;65.79
29733;BME280;16643;43.158;25.302;2023-03-26T07:59:21;97612.44;;;14.43;63.79
29733;BME280;16643;43.158;25.302;2023-03-26T08:02:28;97586.72;;;14.34;62.49
29733;BME280;16643;43.158;25.302;2023-03-26T08:05:01;97582.81;;;14.58;63.56
29733;BME280;16643;43.158;25.302;2023-03-26T08:12:51;97595.72;;;15.08;60.24
29733;BME280;16643;43.158;25.302;2023-03-26T08:20:39;97566.84;;;15.24;57.18
29733;BME280;16643;43.158;25.302;2023-03-26T08:23:16;97575.91;;;15.48;57.87
29733;BME280;16643;43.158;25.302;2023-03-26T08:25:58;97591.84;;;15.45;56.86
29733;BME280;16643;43.158;25.302;2023-03-26T08:31:29;97569.00;;;15.77;56.04
29733;BME280;16643;43.158;25.302;2023-03-26T08:33:57;97551.88;;;15.86;55.43
29733;BME280;16643;43.158;25.302;2023-03-26T08:36:23;97570.59;;;16.08;54.92
29733;BME280;16643;43.158;25.302;2023-03-26T08:38:48;97577.25;;;16.00;53.55
29733;BME280;16643;43.158;25.302;2023-03-26T08:55:39;97587.81;;;16.26;53.14
29733;BME280;16643;43.158;25.302;2023-03-26T09:10:11;97589.88;;;16.78;50.80
29733;BME280;16643;43.158;25.302;2023-03-26T09:38:31;97564.94;;;17.64;46.81
29733;BME280;16643;43.158;25.302;2023-03-26T09:41:07;97558.84;;;17.89;44.30
29733;BME280;16643;43.158;25.302;2023-03-26T09:49:40;97570.41;;;17.87;42.20
29733;BME280;16643;43.158;25.302;2023-03-26T09:52:39;97556.75;;;17.69;41.69
29733;BME280;16643;43.158;25.302;2023-03-26T10:01:09;97551.38;;;17.96;41.85
29733;BME280;16643;43.158;25.302;2023-03-26T10:03:58;97524.34;;;17.94;40.25
29733;BME280;16643;43.158;25.302;2023-03-26T10:06:38;97535.50;;;17.97;41.76
29733;BME280;16643;43.158;25.302;2023-03-26T10:12:24;97516.66;;;18.16;39.10
29733;BME280;16643;43.158;25.302;2023-03-26T10:21:04;97491.38;;;18.26;40.40
29733;BME280;16643;43.158;25.302;2023-03-26T10:23:44;97521.72;;;18.43;37.18
29733;BME280;16643;43.158;25.302;2023-03-26T10:26:44;97516.09;;;18.24;40.12
29733;BME280;16643;43.158;25.302;2023-03-26T10:34:52;97520.69;;;18.58;39.12
29733;BME280;16643;43.158;25.302;2023-03-26T10:40:20;97506.16;;;18.40;38.40
29733;BME280;16643;43.158;25.302;2023-03-26T10:45:56;97496.56;;;18.75;38.61
29733;BME280;16643;43.158;25.302;2023-03-26T10:51:52;97469.94;;;18.43;34.03
29733;BME280;16643;43.158;25.302;2023-03-26T10:54:28;97497.53;;;18.74;34.97
29733;BME280;16643;43.158;25.302;2023-03-26T10:57:02;97467.56;;;18.51;34.49
29733;BME280;16643;43.158;25.302;2023-03-26T10:59:30;97457.44;;;18.71;36.60
29733;BME280;16643;43.158;25.302;2023-03-26T11:02:04;97487.13;;;18.73;33.92
29733;BME280;16643;43.158;25.302;2023-03-26T11:10:12;97456.63;;;19.05;32.06
29733;BME280;16643;43.158;25.302;2023-03-26T11:15:44;97499.03;;;19.13;32.17
29733;BME280;16643;43.158;25.302;2023-03-26T11:18:24;97471.59;;;18.81;32.85
29733;BME280;16643;43.158;25.302;2023-03-26T11:26:24;97470.97;;;19.01;32.01
29733;BME280;16643;43.158;25.302;2023-03-26T11:32:40;97461.00;;;18.94;33.75
29733;BME280;16643;43.158;25.302;2023-03-26T11:35:00;97453.72;;;19.08;32.64
29733;BME280;16643;43.158;25.302;2023-03-26T11:40:02;97445.63;;;19.22;32.07
29733;BME280;16643;43.158;25.302;2023-03-26T11:42:31;97456.91;;;19.36;31.93
29733;BME280;16643;43.158;25.302;2023-03-26T11:45:02;97438.59;;;19.34;30.86
29733;BME280;16643;43.158;25.302;2023-03-26T11:47:37;73216.97;;;-142.82;30.86
29733;BME280;16643;43.158;25.302;2023-03-26T11:50:07;97413.47;;;18.95;32.18
29733;BME280;16643;43.158;25.302;2023-03-26T11:52:36;97434.84;;;19.14;32.79
29733;BME280;16643;43.158;25.302;2023-03-26T11:55:01;97407.31;;;19.18;33.49
29733;BME280;16643;43.158;25.302;2023-03-26T11:57:30;97421.44;;;19.17;31.20
29733;BME280;16643;43.158;25.302;2023-03-26T12:00:05;97427.91;;;19.25;31.87
29733;BME280;16643;43.158;25.302;2023-03-26T12:02:43;97415.66;;;19.12;31.10
29733;BME280;16643;43.158;25.302;2023-03-26T12:05:21;97430.38;;;19.04;30.97
29733;BME280;16643;43.158;25.302;2023-03-26T12:08:17;73250.50;;;-142.82;30.97
29733;BME280;16643;43.158;25.302;2023-03-26T12:10:42;97419.59;;;18.96;28.96
29733;BME280;16643;43.158;25.302;2023-03-26T12:13:33;97410.59;;;18.98;29.65
29733;BME280;16643;43.158;25.302;2023-03-26T12:16:09;97397.19;;;19.01;30.62
29733;BME280;16643;43.158;25.302;2023-03-26T12:18:38;97398.78;;;19.15;30.18
29733;BME280;16643;43.158;25.302;2023-03-26T12:21:13;97399.00;;;19.12;30.66
29733;BME280;16643;43.158;25.302;2023-03-26T12:26:13;97373.34;;;18.92;31.13
29733;BME280;16643;43.158;25.302;2023-03-26T12:28:47;97396.06;;;18.81;30.18
29733;BME280;16643;43.158;25.302;2023-03-26T12:31:15;97402.41;;;18.79;30.69
29733;BME280;16643;43.158;25.302;2023-03-26T12:33:50;97386.50;;;18.92;30.15
29733;BME280;16643;43.158;25.302;2023-03-26T12:36:30;97364.78;;;18.77;29.76
29733;BME280;16643;43.158;25.302;2023-03-26T12:38:57;97374.59;;;18.75;30.88
29733;BME280;16643;43.158;25.302;2023-03-26T12:41:38;97386.47;;;18.80;30.85
29733;BME280;16643;43.158;25.302;2023-03-26T12:44:25;97380.38;;;18.80;29.70
29733;BME280;16643;43.158;25.302;2023-03-26T12:47:08;97376.13;;;19.01;29.87
29733;BME280;16643;43.158;25.302;2023-03-26T12:49:34;97382.34;;;19.11;31.46
29733;BME280;16643;43.158;25.302;2023-03-26T12:55:16;97393.81;;;18.99;29.17
29733;BME280;16643;43.158;25.302;2023-03-26T13:06:53;97368.69;;;18.95;29.04
29733;BME280;16643;43.158;25.302;2023-03-26T13:15:05;97379.75;;;19.22;28.57
29733;BME280;16643;43.158;25.302;2023-03-26T13:17:39;97383.81;;;19.15;29.05
29733;BME280;16643;43.158;25.302;2023-03-26T13:20:21;97363.19;;;19.09;29.08
29733;BME280;16643;43.158;25.302;2023-03-26T13:23:24;97352.31;;;19.14;28.36
29733;BME280;16643;43.158;25.302;2023-03-26T13:29:13;97361.88;;;19.04;28.69
29733;BME280;16643;43.158;25.302;2023-03-26T13:37:25;97384.31;;;18.85;29.66
29733;BME280;16643;43.158;25.302;2023-03-26T13:43:15;97379.53;;;18.79;27.37
29733;BME280;16643;43.158;25.302;2023-03-26T13:45:40;97377.09;;;18.65;27.06
29733;BME280;16643;43.158;25.302;2023-03-26T13:48:30;97376.91;;;18.56;26.53
29733;BME280;16643;43.158;25.302;2023-03-26T13:51:12;97373.75;;;18.39;26.61
29733;BME280;16643;43.158;25.302;2023-03-26T13:53:51;97379.28;;;18.47;27.42
29733;BME280;16643;43.158;25.302;2023-03-26T13:56:25;97372.19;;;18.61;27.07
29733;BME280;16643;43.158;25.302;2023-03-26T13:58:59;97352.56;;;18.65;28.74
29733;BME280;16643;43.158;25.302;2023-03-26T14:01:30;97343.59;;;18.43;28.91
29733;BME280;16643;43.158;25.302;2023-03-26T14:04:21;97371.97;;;18.51;28.63
29733;BME280;16643;43.158;25.302;2023-03-26T14:06:54;97353.69;;;18.49;29.45
29733;BME280;16643;43.158;25.302;2023-03-26T14:09:29;97387.38;;;18.44;28.68
29733;BME280;16643;43.158;25.302;2023-03-26T14:20:25;97380.69;;;18.17;29.98
29733;BME280;16643;43.158;25.302;2023-03-26T14:26:02;97377.75;;;18.32;30.15
29733;BME280;16643;43.158;25.302;2023-03-26T14:31:45;97355.81;;;17.97;30.50
29733;BME280;16643;43.158;25.302;2023-03-26T14:39:32;97368.38;;;17.81;28.68
29733;BME280;16643;43.158;25.302;2023-03-26T14:51:19;97375.47;;;18.04;30.31
29733;BME280;16643;43.158;25.302;2023-03-26T14:54:20;97372.72;;;18.05;28.95
29733;BME280;16643;43.158;25.302;2023-03-26T15:11:23;97358.59;;;17.83;31.73
29733;BME280;16643;43.158;25.302;2023-03-26T15:14:18;97359.34;;;17.72;30.92
29733;BME280;16643;43.158;25.302;2023-03-26T15:30:41;97368.31;;;17.19;32.80
29733;BME280;16643;43.158;25.302;2023-03-26T15:45:38;97373.25;;;16.98;33.59
29733;BME280;16643;43.158;25.302;2023-03-26T15:51:32;97370.84;;;16.95;34.57
29733;BME280;16643;43.158;25.302;2023-03-26T15:54:15;97368.63;;;16.89;34.63
29733;BME280;16643;43.158;25.302;2023-03-26T15:57:15;97363.91;;;16.81;34.60
29733;BME280;16643;43.158;25.302;2023-03-26T16:00:10;97374.50;;;16.67;35.21
29733;BME280;16643;43.158;25.302;2023-03-26T16:02:51;97373.78;;;16.51;35.32
29733;BME280;16643;43.158;25.302;2023-03-26T16:10:55;97383.66;;;16.20;35.34
29733;BME280;16643;43.158;25.302;2023-03-26T16:18:34;97387.84;;;15.96;35.91
29733;BME280;16643;43.158;25.302;2023-03-26T16:24:20;97386.66;;;15.87;36.65
29733;BME280;16643;43.158;25.302;2023-03-26T16:27:05;97383.56;;;15.81;36.50
29733;BME280;16643;43.158;25.302;2023-03-26T16:30:12;97389.19;;;15.75;37.01
29733;BME280;16643;43.158;25.302;2023-03-26T16:32:40;97375.34;;;15.58;36.76
29733;BME280;16643;43.158;25.302;2023-03-26T16:37:42;97399.16;;;15.55;37.34
29733;BME280;16643;43.158;25.302;2023-03-26T16:45:38;97396.84;;;15.35;38.00
29733;BME280;16643;43.158;25.302;2023-03-26T16:57:27;97404.16;;;15.16;39.01
29733;BME280;16643;43.158;25.302;2023-03-26T17:03:05;97406.47;;;15.06;38.82
29733;BME280;16643;43.158;25.302;2023-03-26T17:10:59;97426.31;;;14.80;39.67
29733;BME280;16643;43.158;25.302;2023-03-26T17:16:25;97419.91;;;14.86;40.11
29733;BME280;16643;43.158;25.302;2023-03-26T17:21:56;97414.72;;;14.70;39.82
29733;BME280;16643;43.158;25.302;2023-03-26T17:24:49;97434.16;;;14.66;40.64
29733;BME280;16643;43.158;25.302;2023-03-26T17:27:44;97439.09;;;14.71;40.52
29733;BME280;16643;43.158;25.302;2023-03-26T17:33:26;97438.88;;;14.60;40.23
29733;BME280;16643;43.158;25.302;2023-03-26T17:41:05;97428.00;;;14.36;40.92
29733;BME280;16643;43.158;25.302;2023-03-26T17:43:43;97384.34;;;13.91;41.21
29733;BME280;16643;43.158;25.302;2023-03-26T17:51:47;97435.00;;;14.04;41.41
29733;BME280;16643;43.158;25.302;2023-03-26T17:54:23;97426.69;;;13.97;41.58
29733;BME280;16643;43.158;25.302;2023-03-26T17:56:51;97423.72;;;13.88;41.84
29733;BME280;16643;43.158;25.302;2023-03-26T17:59:24;97431.81;;;13.83;41.95
29733;BME280;16643;43.158;25.302;2023-03-26T18:02:02;97440.25;;;13.88;42.11
29733;BME280;16643;43.158;25.302;2023-03-26T18:04:39;97443.78;;;13.87;41.89
29733;BME280;16643;43.158;25.302;2023-03-26T18:18:30;97456.97;;;13.68;42.26
29733;BME280;16643;43.158;25.302;2023-03-26T18:20:47;97445.44;;;13.72;42.40
29733;BME280;16643;43.158;25.302;2023-03-26T18:25:55;97434.66;;;13.63;41.84